Airfield :
LOGIN :

Register | Disclaimer

   EN    FR    IT 

 










Legend :    VFR   Marginal VFR   IFR   Intensive IFR   Very Intensive IFR
Visi :
Ceiling :
>= 8 km
>= 3000ft
5 to 8 km
1000 to 3000 ft
1500m to 5 km
500 to 1000 ft
800 to 1500m
200 to 500 ft
< 800m
< 200 ft
Symbols :   Thunderstorms  Fog  Heavy snow  Heavy precipitations  Wind > 20 kt
SIGMETs :     Misc.  Thunderstorms  Icing  Turbulence  Mountain Waves  Volcanic Ashes







- Airport Elevation : 102 ft
- IATA code : CNG
- Download approach charts


LFBG - Cognac

CURRENT METAR :
  • 112300Z AUTO 07001KT 3900 1200 R23/1200N BR NSC 03/02 Q1021 NOSIG

EXPIRED METARs :
  • 112230Z AUTO 00000KT 6000 NSC 03/02 Q1022 BECMG 4000 BR
  • 112200Z AUTO 04001KT 6000 NSC 04/03 Q1021 BECMG 4000 BR
  • 112130Z AUTO 03003KT 8000 NSC 04/03 Q1021 BECMG 4000 BR
  • 112100Z AUTO 02003KT 7000 NSC 04/03 Q1021 BECMG 4000 BR
  • 112030Z AUTO 00000KT 5000 0800 R23/1000U BCFG NSC 03/02 Q1021 NOSIG

TAF AMD TAF LFBG
Valid from the 11 at 21:00 until the 12 at 21:00 UTC


111952Z 1121/1221 04004KT 4000 MIFG NSC
BECMG 1203/1205 -RA SCT005 BKN040 BKN080
BECMG 1211/1213 9999 NSW BKN025
No reported NOTAMs for that airfield.



MET'MAP, your aeronautical weather chart ! - Copyright ORBIFLY December 2007 - Disclaimer

ORBIFLY MET'MAP TEAM :

Programming & Development : Alexandra Zaïnal
Concept & Development : Baudouin d'Aumeries
Co-Development & Prog : Marc-Olivier Méhu
Technical & hardware support : Manuel Goepfert

Contact : metmap@orbifly.com




SOURCES & CREDITS :

   NOAA